Anderson, AK

3:44 PM AKDT on August 31, 2015 (GMT -0800)
Nenana Municipal | | Change Station
CLOSE
Current Station
Airport
Location: Nenana,
Elevation: 361 ft
Nearby Weather Stations

Elev 361 ft 64.55 °N, 149.07 °W | Updated 51 minutes ago

Overcast
Overcast
50 °F
Feels Like 50 °F
N
8
Wind Variable Wind from West

Today
High -- | Low -- °F
--% Chance of Precip.
Yesterday
High -- | Low -- °F
Precip. -- in
6:35 AM 9:16 PM
Waning Gibbous, 93% visible
Pressure 29.83 in
Visibility 10.0 miles
Clouds Overcast 5500 ft
Dew Point 30 °F
Humidity 46%
Rainfall 0.00 in
Snow Depth Not available.
UV 1 out of 12
Pollen Not available.
Air Quality Not available.
Flu Activity Not available.
METAR PANN 312253Z AUTO 26007KT 220V300 10SM OVC055 10/M01 A2980 RMK AO2 SLP099 T01001011 TSNO
Pressure 29.83 in
Visibility 10.0 miles
Clouds Overcast 5500 ft
Dew Point 30 °F
Humidity 46%
Rainfall 0.00 in
Snow Depth Not available.
UV 1 out of 12
Pollen Not available.
Air Quality Not available.
Flu Activity Not available.
METAR PANN 312253Z AUTO 26007KT 220V300 10SM OVC055 10/M01 A2980 RMK AO2 SLP099 T01001011 TSNO

10-Day Weather Forecast

×

Almanac

Astronomy

Aug. 31, 2015 Rise Set
Actual Time
Civil Twilight
Nautical Twilight
Astronomical Twilight
Moon
Length of Visible Light
Length of Day
Tomorrow will be .
, % of the Moon is Illuminated

Today's Extremes

State Highs State Lows

Community

WunderPhotos

Upload Photos

1,851,395 photos uploaded!

WunderBlogs® & News

Nearby

Air Quality

  Air Quality AQ Index Pollutant
Not available.

Snow Depth

Station Depth Elevation

Earthquake Activity

City Distance Mag. Time & Date
Minimum magnitude displayed is 2.5.

Coastal Water Temperatures

Place Temperature

Stations

Nearby Weather Stations

Station Location Temp. Windchill Dew Point Humidity Wind Precip. Elev Updated Type